createdAt,value
2019-02-27T00:00:30.127Z,92.76
2019-02-27T00:01:30.101Z,92.65
2019-02-27T00:02:30.110Z,93.06
2019-02-27T00:03:30.086Z,92.96
2019-02-27T00:04:30.077Z,92.85
2019-02-27T00:05:30.112Z,92.76
2019-02-27T00:06:30.049Z,93.06
2019-02-27T00:07:30.057Z,92.96
2019-02-27T00:08:30.032Z,92.76
2019-02-27T00:09:32.670Z,92.03
2019-02-27T00:10:30.012Z,92.03
2019-02-27T00:11:29.993Z,91.30
2019-02-27T00:12:30.003Z,91.41
2019-02-27T00:13:29.969Z,90.89
2019-02-27T00:14:31.292Z,90.99
2019-02-27T00:15:29.949Z,91.30
2019-02-27T00:16:29.937Z,91.30
2019-02-27T00:17:29.947Z,91.41
2019-02-27T00:18:29.927Z,91.55
2019-02-27T00:19:31.491Z,90.93
2019-02-27T00:20:29.890Z,89.79
2019-02-27T00:21:29.878Z,89.13
2019-02-27T00:22:29.895Z,88.76
2019-02-27T00:23:29.861Z,88.03
2019-02-27T00:24:30.527Z,87.51
2019-02-27T00:25:29.837Z,87.30
2019-02-27T00:26:29.821Z,86.99
2019-02-27T00:27:29.858Z,87.82
2019-02-27T00:28:29.801Z,87.30
2019-02-27T00:29:29.799Z,87.87
2019-02-27T00:30:29.781Z,87.35
2019-02-27T00:31:29.770Z,87.55
2019-02-27T00:32:29.759Z,86.93
2019-02-27T00:33:29.768Z,88.07
2019-02-27T00:34:32.826Z,87.87
2019-02-27T00:35:29.725Z,87.87
2019-02-27T00:36:29.708Z,88.18
2019-02-27T00:37:29.704Z,88.28
2019-02-27T00:38:29.833Z,88.32
2019-02-27T00:39:31.309Z,89.00
2019-02-27T00:40:29.669Z,88.79
2019-02-27T00:41:29.649Z,89.04
2019-02-27T00:42:33.553Z,88.94
2019-02-27T00:43:29.659Z,88.90
2019-02-27T00:44:33.974Z,89.15
2019-02-27T00:45:30.612Z,89.25
2019-02-27T00:46:29.596Z,88.32
2019-02-27T00:47:29.583Z,87.80
2019-02-27T00:48:29.598Z,88.53
2019-02-27T00:49:29.852Z,89.19
2019-02-27T00:50:29.550Z,89.19
2019-02-27T00:51:29.539Z,89.40
2019-02-27T00:52:29.535Z,89.77
2019-02-27T00:53:29.536Z,89.61
2019-02-27T00:54:31.456Z,89.40
2019-02-27T00:55:29.498Z,89.19
2019-02-27T00:56:29.488Z,88.78
2019-02-27T00:57:29.474Z,88.36
2019-02-27T00:58:29.482Z,88.15
2019-02-27T00:59:32.943Z,87.22
2019-02-27T01:00:29.441Z,87.43
2019-02-27T01:01:29.435Z,87.22
2019-02-27T01:02:29.426Z,86.80
2019-02-27T01:03:29.445Z,87.43
2019-02-27T01:04:29.394Z,87.22
2019-02-27T01:05:29.386Z,86.91
2019-02-27T01:06:29.377Z,86.74
2019-02-27T01:07:29.367Z,87.78
2019-02-27T01:08:29.362Z,87.68
2019-02-27T01:09:29.374Z,87.68
2019-02-27T01:10:29.327Z,87.68
2019-02-27T01:11:29.321Z,88.30
2019-02-27T01:12:29.307Z,88.20
2019-02-27T01:13:31.266Z,88.51
2019-02-27T01:14:29.304Z,88.51
2019-02-27T01:15:29.277Z,88.20
2019-02-27T01:16:29.262Z,88.71
2019-02-27T01:17:29.250Z,87.16
2019-02-27T01:18:30.761Z,86.95
2019-02-27T01:19:29.245Z,87.92
2019-02-27T01:20:29.221Z,87.78
2019-02-27T01:21:29.206Z,87.82
2019-02-27T01:22:29.194Z,87.82
2019-02-27T01:23:29.193Z,87.82
2019-02-27T01:24:29.191Z,87.71
2019-02-27T01:25:29.237Z,87.82
2019-02-27T01:26:30.831Z,87.82
2019-02-27T01:27:29.140Z,87.61
2019-02-27T01:28:29.129Z,86.68
2019-02-27T01:29:29.171Z,86.99
2019-02-27T01:30:29.112Z,86.99
2019-02-27T01:31:29.094Z,86.88
2019-02-27T01:32:31.149Z,86.78
2019-02-27T01:33:29.090Z,86.57
2019-02-27T01:34:29.084Z,87.30
2019-02-27T01:35:29.050Z,86.47
2019-02-27T01:36:29.037Z,86.36
2019-02-27T01:37:31.659Z,86.47
2019-02-27T01:38:29.021Z,87.03
2019-02-27T01:39:29.076Z,87.61
2019-02-27T01:40:28.996Z,87.24
2019-02-27T01:41:29.023Z,87.24
2019-02-27T01:42:32.044Z,86.93
2019-02-27T01:43:28.958Z,86.51
2019-02-27T01:44:28.995Z,86.61
2019-02-27T01:45:28.960Z,86.30
2019-02-27T01:46:28.924Z,86.41
2019-02-27T01:47:28.919Z,85.57
2019-02-27T01:48:29.644Z,85.78
2019-02-27T01:49:28.902Z,85.93
2019-02-27T01:50:28.904Z,85.78
2019-02-27T01:51:28.953Z,85.30
2019-02-27T01:52:28.858Z,85.30
2019-02-27T01:53:28.852Z,84.78
2019-02-27T01:54:28.833Z,85.20
2019-02-27T01:55:28.857Z,85.55
2019-02-27T01:56:29.623Z,85.96
2019-02-27T01:57:28.805Z,86.07
2019-02-27T01:58:28.793Z,85.86
2019-02-27T01:59:28.789Z,86.17
2019-02-27T02:00:28.797Z,85.86
2019-02-27T02:01:30.231Z,86.27
2019-02-27T02:02:28.743Z,85.75
2019-02-27T02:03:28.742Z,86.21
2019-02-27T02:04:28.721Z,86.83
2019-02-27T02:05:28.737Z,87.15
2019-02-27T02:06:31.958Z,86.83
2019-02-27T02:07:28.778Z,86.83
2019-02-27T02:08:28.681Z,87.77
2019-02-27T02:09:28.666Z,87.88
2019-02-27T02:10:28.887Z,88.60
2019-02-27T02:11:28.651Z,89.43
2019-02-27T02:12:28.631Z,89.95
2019-02-27T02:13:28.701Z,89.64
2019-02-27T02:14:28.610Z,89.75
2019-02-27T02:15:28.621Z,90.37
2019-02-27T02:16:28.596Z,90.23
2019-02-27T02:17:28.581Z,89.70
2019-02-27T02:18:28.565Z,89.60
2019-02-27T02:19:28.557Z,90.12
2019-02-27T02:20:28.565Z,89.70
2019-02-27T02:21:28.532Z,89.70
2019-02-27T02:22:28.538Z,89.60
2019-02-27T02:23:28.509Z,90.23
2019-02-27T02:24:28.500Z,90.54
2019-02-27T02:25:28.669Z,90.44
2019-02-27T02:26:28.480Z,90.85
2019-02-27T02:27:28.470Z,90.64
2019-02-27T02:28:28.457Z,90.39
2019-02-27T02:29:28.455Z,89.98
2019-02-27T02:30:29.753Z,90.08
2019-02-27T02:31:28.419Z,89.56
2019-02-27T02:32:28.414Z,89.46
2019-02-27T02:33:30.320Z,89.67
2019-02-27T02:34:28.398Z,89.46
2019-02-27T02:35:28.377Z,89.77
2019-02-27T02:36:28.394Z,90.19
2019-02-27T02:37:28.363Z,90.19
2019-02-27T02:38:28.341Z,89.67
2019-02-27T02:39:28.393Z,90.19
2019-02-27T02:40:31.111Z,91.74
2019-02-27T02:41:28.332Z,91.53
2019-02-27T02:42:28.300Z,90.29
2019-02-27T02:43:28.289Z,89.46
2019-02-27T02:44:28.275Z,89.67
2019-02-27T02:45:32.817Z,89.15
2019-02-27T02:46:29.271Z,89.15
2019-02-27T02:47:28.246Z,89.04
2019-02-27T02:48:31.090Z,89.18
2019-02-27T02:49:28.225Z,89.25
2019-02-27T02:50:28.209Z,89.29
2019-02-27T02:51:29.892Z,89.08
2019-02-27T02:52:28.185Z,89.39
2019-02-27T02:53:28.175Z,89.39
2019-02-27T02:54:28.165Z,89.60
2019-02-27T02:55:28.155Z,89.18
2019-02-27T02:56:28.187Z,89.18
2019-02-27T02:57:28.141Z,89.60
2019-02-27T02:58:28.120Z,89.70
2019-02-27T02:59:28.106Z,89.18
2019-02-27T03:00:28.092Z,89.81
2019-02-27T03:01:28.103Z,89.08
2019-02-27T03:02:29.830Z,89.18
2019-02-27T03:03:28.064Z,89.18
2019-02-27T03:04:28.052Z,89.29
2019-02-27T03:05:28.039Z,89.18
2019-02-27T03:06:34.642Z,89.70
2019-02-27T03:07:29.026Z,89.08
2019-02-27T03:08:28.015Z,89.18
2019-02-27T03:09:30.615Z,89.29
2019-02-27T03:10:27.985Z,90.23
2019-02-27T03:11:28.018Z,90.95
2019-02-27T03:12:30.974Z,91.68
2019-02-27T03:13:27.952Z,91.99
2019-02-27T03:14:27.949Z,90.12
2019-02-27T03:15:28.972Z,89.50
2019-02-27T03:16:27.914Z,89.70
2019-02-27T03:17:27.941Z,89.92
2019-02-27T03:18:29.674Z,89.18
2019-02-27T03:19:27.948Z,89.70
2019-02-27T03:20:27.885Z,89.50
2019-02-27T03:21:28.922Z,89.60
2019-02-27T03:22:27.867Z,89.39
2019-02-27T03:23:27.840Z,89.70
2019-02-27T03:24:28.945Z,89.08
2019-02-27T03:25:27.822Z,88.87
2019-02-27T03:26:27.811Z,89.70
2019-02-27T03:27:30.636Z,89.60
2019-02-27T03:28:27.785Z,89.70
2019-02-27T03:29:27.773Z,90.54
2019-02-27T03:30:34.160Z,91.06
2019-02-27T03:31:28.748Z,91.37
2019-02-27T03:32:27.779Z,91.68
2019-02-27T03:33:27.783Z,92.30
2019-02-27T03:34:27.720Z,92.51
2019-02-27T03:35:29.300Z,92.41
2019-02-27T03:36:27.695Z,92.61
2019-02-27T03:37:27.707Z,93.03
2019-02-27T03:38:27.670Z,93.51
2019-02-27T03:39:27.665Z,93.24
2019-02-27T03:40:27.647Z,93.87
2019-02-27T03:41:27.635Z,94.18
2019-02-27T03:42:30.827Z,94.80
2019-02-27T03:43:28.619Z,94.49
2019-02-27T03:44:27.606Z,94.38
2019-02-27T03:45:30.914Z,94.49
2019-02-27T03:46:27.583Z,94.59
2019-02-27T03:47:27.604Z,94.96
2019-02-27T03:48:28.411Z,95.11
2019-02-27T03:49:27.548Z,95.01
2019-02-27T03:50:27.542Z,94.90
2019-02-27T03:51:27.524Z,95.17
2019-02-27T03:52:27.531Z,95.17
2019-02-27T03:53:27.518Z,94.76
2019-02-27T03:54:27.496Z,94.59
2019-02-27T03:55:31.849Z,94.80
2019-02-27T03:56:28.464Z,94.18
2019-02-27T03:57:27.475Z,94.28
2019-02-27T03:58:30.691Z,93.76
2019-02-27T03:59:27.448Z,93.45
2019-02-27T04:00:27.439Z,93.14
2019-02-27T04:01:30.469Z,93.49
2019-02-27T04:02:27.421Z,93.60
2019-02-27T04:03:27.413Z,93.07
2019-02-27T04:04:30.603Z,93.07
2019-02-27T04:05:27.372Z,93.29
2019-02-27T04:06:27.359Z,93.12
2019-02-27T04:07:31.550Z,93.39
2019-02-27T04:08:28.352Z,93.43
2019-02-27T04:09:27.345Z,93.64
2019-02-27T04:10:31.020Z,93.33
2019-02-27T04:11:27.313Z,93.54
2019-02-27T04:12:27.314Z,93.43
2019-02-27T04:13:27.916Z,93.37
2019-02-27T04:14:27.267Z,93.99
2019-02-27T04:15:27.264Z,93.89
2019-02-27T04:16:29.422Z,93.68
2019-02-27T04:17:27.259Z,94.20
2019-02-27T04:18:28.393Z,94.93
2019-02-27T04:19:27.216Z,94.72
2019-02-27T04:20:27.201Z,94.31
2019-02-27T04:21:27.192Z,94.51
2019-02-27T04:22:27.207Z,94.20
2019-02-27T04:23:27.226Z,94.20
2019-02-27T04:24:27.161Z,94.24
2019-02-27T04:25:31.074Z,94.72
2019-02-27T04:26:27.137Z,94.98
2019-02-27T04:27:27.145Z,94.72
2019-02-27T04:28:29.540Z,95.25
2019-02-27T04:29:27.107Z,95.18
2019-02-27T04:30:27.089Z,95.08
2019-02-27T04:31:30.521Z,95.08
2019-02-27T04:32:27.196Z,94.87
2019-02-27T04:33:27.073Z,95.60
2019-02-27T04:34:27.051Z,95.29
2019-02-27T04:35:27.038Z,95.50
2019-02-27T04:36:27.034Z,95.39
2019-02-27T04:37:27.027Z,94.87
2019-02-27T04:38:27.529Z,95.08
2019-02-27T04:39:27.163Z,95.81
2019-02-27T04:40:26.986Z,95.91
2019-02-27T04:41:26.964Z,95.50
2019-02-27T04:42:26.967Z,95.18
2019-02-27T04:43:26.959Z,95.29
2019-02-27T04:44:26.942Z,95.18
2019-02-27T04:45:26.921Z,94.98
2019-02-27T04:46:26.919Z,95.18
2019-02-27T04:47:29.231Z,94.98
2019-02-27T04:48:29.792Z,94.98
2019-02-27T04:49:26.875Z,95.33
2019-02-27T04:50:26.870Z,95.50
2019-02-27T04:51:26.857Z,95.64
2019-02-27T04:52:26.839Z,95.39
2019-02-27T04:53:31.614Z,95.70
2019-02-27T04:54:26.819Z,95.81
2019-02-27T04:55:26.809Z,95.75
2019-02-27T04:56:26.800Z,96.43
2019-02-27T04:57:26.795Z,95.70
2019-02-27T04:58:26.804Z,95.60
2019-02-27T04:59:26.762Z,95.50
2019-02-27T05:00:26.902Z,95.29
2019-02-27T05:01:26.746Z,94.66
2019-02-27T05:02:26.738Z,95.39
2019-02-27T05:03:28.506Z,94.24
2019-02-27T05:04:26.714Z,94.45
2019-02-27T05:05:26.694Z,94.31
2019-02-27T05:06:26.685Z,94.24
2019-02-27T05:07:26.679Z,93.83
2019-02-27T05:08:27.718Z,94.10
2019-02-27T05:09:26.659Z,94.24
2019-02-27T05:10:26.642Z,94.35
2019-02-27T05:11:27.068Z,94.41
2019-02-27T05:12:26.633Z,94.24
2019-02-27T05:13:26.630Z,94.04
2019-02-27T05:14:27.346Z,93.62
2019-02-27T05:15:26.599Z,93.62
2019-02-27T05:16:26.571Z,93.31
2019-02-27T05:17:26.566Z,93.16
2019-02-27T05:18:29.292Z,93.41
2019-02-27T05:19:26.543Z,93.31
2019-02-27T05:20:26.535Z,93.20
2019-02-27T05:21:26.521Z,93.52
2019-02-27T05:22:26.784Z,93.10
2019-02-27T05:23:26.528Z,93.20
2019-02-27T05:24:26.485Z,93.46
2019-02-27T05:25:26.476Z,93.73
2019-02-27T05:26:27.260Z,93.62
2019-02-27T05:27:27.420Z,93.20
2019-02-27T05:28:27.166Z,93.35
2019-02-27T05:29:26.490Z,93.41
2019-02-27T05:30:26.426Z,93.66
2019-02-27T05:31:26.411Z,93.73
2019-02-27T05:32:28.330Z,93.41
2019-02-27T05:33:26.384Z,93.62
2019-02-27T05:34:26.390Z,93.20
2019-02-27T05:35:26.363Z,93.73
2019-02-27T05:36:29.042Z,93.77
2019-02-27T05:37:27.346Z,93.20
2019-02-27T05:38:26.344Z,93.66
2019-02-27T05:39:26.347Z,93.62
2019-02-27T05:40:26.666Z,93.56
2019-02-27T05:41:26.292Z,93.31
2019-02-27T05:42:26.285Z,93.41
2019-02-27T05:43:26.273Z,93.77
2019-02-27T05:44:26.285Z,93.62
2019-02-27T05:45:30.348Z,93.20
2019-02-27T05:46:26.241Z,93.66
2019-02-27T05:47:26.231Z,93.20
2019-02-27T05:48:26.221Z,93.73
2019-02-27T05:49:27.396Z,93.62
2019-02-27T05:50:26.198Z,93.31
2019-02-27T05:51:26.187Z,93.66
2019-02-27T05:52:26.179Z,93.41
2019-02-27T05:53:26.176Z,93.52
2019-02-27T05:54:26.191Z,93.14
2019-02-27T05:55:26.147Z,93.41
2019-02-27T05:56:26.143Z,93.20
2019-02-27T05:57:26.115Z,93.46
2019-02-27T05:58:26.107Z,93.62
2019-02-27T05:59:29.157Z,93.14
2019-02-27T06:00:26.108Z,93.66
2019-02-27T06:01:26.079Z,93.31
2019-02-27T06:02:26.067Z,93.20
2019-02-27T06:03:26.051Z,93.52
2019-02-27T06:04:26.082Z,93.20
2019-02-27T06:05:26.030Z,92.72
2019-02-27T06:06:26.024Z,92.58
2019-02-27T06:07:26.023Z,92.37
2019-02-27T06:08:25.998Z,92.93
2019-02-27T06:09:26.035Z,92.79
2019-02-27T06:10:26.000Z,92.72
2019-02-27T06:11:27.096Z,92.68
2019-02-27T06:12:25.955Z,92.79
2019-02-27T06:13:26.005Z,92.79
2019-02-27T06:14:25.927Z,92.79
2019-02-27T06:15:28.408Z,92.79
2019-02-27T06:16:25.914Z,92.47
2019-02-27T06:17:25.967Z,92.47
2019-02-27T06:18:25.883Z,92.89
2019-02-27T06:19:25.871Z,92.58
2019-02-27T06:20:25.877Z,92.58
2019-02-27T06:21:25.849Z,92.47
2019-02-27T06:22:27.271Z,92.68
2019-02-27T06:23:25.834Z,92.68
2019-02-27T06:24:25.829Z,92.89
2019-02-27T06:25:25.834Z,92.37
2019-02-27T06:26:25.795Z,92.27
2019-02-27T06:27:25.777Z,92.16
2019-02-27T06:28:25.903Z,92.12
2019-02-27T06:29:25.771Z,92.16
2019-02-27T06:30:27.898Z,91.75
2019-02-27T06:31:25.741Z,91.81
2019-02-27T06:32:25.726Z,91.91
2019-02-27T06:33:25.715Z,92.12
2019-02-27T06:34:25.698Z,91.71
2019-02-27T06:35:25.704Z,92.12
2019-02-27T06:36:25.682Z,92.33
2019-02-27T06:37:25.668Z,91.81
2019-02-27T06:38:25.963Z,92.22
2019-02-27T06:39:25.660Z,91.71
2019-02-27T06:40:25.662Z,91.81
2019-02-27T06:41:25.642Z,92.33
2019-02-27T06:42:25.765Z,91.71
2019-02-27T06:43:27.385Z,91.60
2019-02-27T06:44:25.589Z,91.60
2019-02-27T06:45:25.621Z,91.50
2019-02-27T06:46:25.603Z,91.35
2019-02-27T06:47:25.559Z,91.46
2019-02-27T06:48:25.553Z,91.50
2019-02-27T06:49:25.536Z,91.56
2019-02-27T06:50:26.120Z,91.35
2019-02-27T06:51:25.539Z,91.46
2019-02-27T06:52:25.509Z,91.56
2019-02-27T06:53:25.495Z,91.35
2019-02-27T06:54:25.490Z,91.46
2019-02-27T06:55:27.983Z,91.46
2019-02-27T06:56:25.477Z,91.46
2019-02-27T06:57:26.833Z,91.66
2019-02-27T06:58:25.443Z,91.14
2019-02-27T06:59:25.744Z,91.66
2019-02-27T07:00:25.419Z,91.46
2019-02-27T07:01:25.417Z,91.77
2019-02-27T07:02:25.407Z,91.35
2019-02-27T07:03:29.227Z,91.46
2019-02-27T07:04:26.871Z,91.00
2019-02-27T07:05:25.360Z,90.83
2019-02-27T07:06:25.362Z,90.72
2019-02-27T07:07:25.333Z,90.10
2019-02-27T07:08:25.323Z,90.52
2019-02-27T07:09:25.319Z,90.83
2019-02-27T07:10:25.301Z,91.56
2019-02-27T07:11:25.305Z,91.66
2019-02-27T07:12:25.281Z,91.25
2019-02-27T07:13:26.758Z,91.41
2019-02-27T07:14:25.257Z,91.25
2019-02-27T07:15:25.247Z,91.56
2019-02-27T07:16:25.251Z,91.72
2019-02-27T07:17:25.225Z,91.31
2019-02-27T07:18:25.207Z,90.47
2019-02-27T07:19:25.219Z,89.64
2019-02-27T07:20:25.378Z,89.60
2019-02-27T07:21:25.199Z,89.70
2019-02-27T07:22:25.163Z,89.60
2019-02-27T07:23:25.155Z,89.60
2019-02-27T07:24:25.144Z,89.64
2019-02-27T07:25:25.137Z,89.60
2019-02-27T07:26:25.154Z,89.60
2019-02-27T07:27:25.124Z,89.50
2019-02-27T07:28:25.098Z,89.60
2019-02-27T07:29:27.468Z,89.60
2019-02-27T07:30:25.076Z,89.75
2019-02-27T07:31:25.086Z,89.75
2019-02-27T07:32:25.083Z,89.70
2019-02-27T07:33:25.037Z,89.81
2019-02-27T07:34:25.044Z,89.92
2019-02-27T07:35:26.318Z,89.81
2019-02-27T07:36:25.007Z,89.36
2019-02-27T07:37:25.031Z,88.84
2019-02-27T07:38:25.631Z,89.04
2019-02-27T07:39:24.976Z,89.36
2019-02-27T07:40:24.981Z,89.11
2019-02-27T07:41:24.983Z,89.11
2019-02-27T07:42:24.958Z,89.21
2019-02-27T07:43:24.935Z,88.59
2019-02-27T07:44:24.925Z,88.07
2019-02-27T07:45:25.041Z,88.23
2019-02-27T07:46:24.897Z,87.51
2019-02-27T07:47:24.905Z,87.71
2019-02-27T07:48:25.027Z,87.71
2019-02-27T07:49:24.869Z,86.57
2019-02-27T07:50:24.876Z,87.61
2019-02-27T07:51:24.846Z,87.57
2019-02-27T07:52:24.857Z,86.85
2019-02-27T07:53:25.648Z,86.43
2019-02-27T07:54:28.769Z,86.54
2019-02-27T07:55:28.237Z,85.91
2019-02-27T07:56:24.783Z,86.12
2019-02-27T07:57:24.791Z,85.91
2019-02-27T07:58:24.768Z,85.91
2019-02-27T07:59:24.759Z,85.77
2019-02-27T08:00:26.335Z,85.56
2019-02-27T08:01:24.742Z,85.66
2019-02-27T08:02:24.733Z,85.66
2019-02-27T08:03:24.704Z,84.73
2019-02-27T08:04:24.699Z,84.69
2019-02-27T08:05:27.890Z,84.59
2019-02-27T08:06:24.677Z,84.69
2019-02-27T08:07:24.690Z,84.86
2019-02-27T08:08:24.655Z,84.44
2019-02-27T08:09:24.645Z,84.55
2019-02-27T08:10:24.631Z,84.41
2019-02-27T08:11:26.441Z,83.37
2019-02-27T08:12:24.605Z,83.68
2019-02-27T08:13:27.110Z,83.23
2019-02-27T08:14:25.594Z,83.16
2019-02-27T08:15:25.490Z,82.60
2019-02-27T08:16:24.567Z,82.81
2019-02-27T08:17:24.552Z,82.40
2019-02-27T08:18:30.098Z,82.29
2019-02-27T08:19:25.542Z,82.05
2019-02-27T08:20:24.526Z,81.23
2019-02-27T08:21:24.506Z,81.29
2019-02-27T08:22:24.495Z,80.15
2019-02-27T08:23:24.510Z,80.05
2019-02-27T08:24:24.984Z,80.36
2019-02-27T08:25:24.465Z,80.26
2019-02-27T08:26:24.457Z,80.11
2019-02-27T08:27:24.453Z,80.01
2019-02-27T08:28:24.446Z,79.49
2019-02-27T08:29:24.415Z,79.60
2019-02-27T08:30:24.410Z,80.11
2019-02-27T08:31:28.003Z,80.08
2019-02-27T08:32:24.383Z,79.66
2019-02-27T08:33:24.401Z,78.53
2019-02-27T08:34:24.366Z,79.32
2019-02-27T08:35:24.349Z,78.70
2019-02-27T08:36:24.342Z,78.49
2019-02-27T08:37:24.324Z,78.39
2019-02-27T08:38:24.741Z,78.80
2019-02-27T08:39:24.303Z,78.87
2019-02-27T08:40:25.236Z,78.87
2019-02-27T08:41:24.290Z,78.35
2019-02-27T08:42:24.276Z,78.25
2019-02-27T08:43:24.286Z,77.59
2019-02-27T08:44:24.258Z,77.18
2019-02-27T08:45:27.013Z,76.77
2019-02-27T08:46:24.227Z,76.04
2019-02-27T08:47:24.220Z,76.46
2019-02-27T08:48:24.227Z,75.49
2019-02-27T08:49:25.024Z,75.18
2019-02-27T08:50:24.188Z,73.91
2019-02-27T08:51:24.175Z,73.81
2019-02-27T08:52:24.163Z,73.91
2019-02-27T08:53:26.803Z,73.16
2019-02-27T08:54:24.137Z,72.96
2019-02-27T08:55:24.126Z,72.54
2019-02-27T08:56:24.128Z,71.72
2019-02-27T08:57:24.110Z,71.99
2019-02-27T08:58:26.707Z,71.37
2019-02-27T08:59:25.087Z,71.78
2019-02-27T09:00:24.077Z,70.93
2019-02-27T09:01:24.062Z,69.38
2019-02-27T09:02:24.256Z,69.49
2019-02-27T09:03:24.038Z,69.97
2019-02-27T09:04:24.040Z,68.02
2019-02-27T09:05:24.025Z,66.78
2019-02-27T09:06:27.318Z,66.64
2019-02-27T09:07:23.988Z,67.36
2019-02-27T09:08:23.987Z,67.78
2019-02-27T09:09:23.992Z,65.89
2019-02-27T09:10:26.692Z,65.59
2019-02-27T09:11:24.952Z,65.69
2019-02-27T09:12:23.947Z,65.89
2019-02-27T09:13:23.936Z,65.45
2019-02-27T09:14:23.935Z,65.28
2019-02-27T09:15:23.903Z,66.07
2019-02-27T09:16:26.041Z,65.56
2019-02-27T09:17:27.129Z,65.35
2019-02-27T09:18:23.876Z,65.63
2019-02-27T09:19:23.876Z,66.07
2019-02-27T09:20:23.852Z,65.22
2019-02-27T09:21:24.912Z,65.01
2019-02-27T09:22:23.833Z,63.89
2019-02-27T09:23:23.815Z,63.13
2019-02-27T09:24:23.824Z,61.90
2019-02-27T09:25:24.851Z,61.18
2019-02-27T09:26:24.323Z,61.57
2019-02-27T09:27:23.771Z,61.46
2019-02-27T09:28:23.766Z,61.77
2019-02-27T09:29:23.779Z,61.05
2019-02-27T09:30:28.948Z,61.13
2019-02-27T09:31:24.720Z,60.23
2019-02-27T09:32:23.713Z,60.41
2019-02-27T09:33:23.703Z,60.41
2019-02-27T09:34:26.635Z,58.15
2019-02-27T09:35:23.684Z,58.26
2019-02-27T09:36:23.673Z,58.54
2019-02-27T09:37:23.667Z,57.61
2019-02-27T09:38:24.368Z,56.69
2019-02-27T09:39:23.655Z,56.90
2019-02-27T09:40:23.631Z,56.35
2019-02-27T09:41:23.609Z,56.46
2019-02-27T09:42:23.606Z,56.15
2019-02-27T09:43:24.106Z,55.94
2019-02-27T09:44:23.610Z,55.54
2019-02-27T09:45:23.573Z,55.74
2019-02-27T09:46:23.563Z,54.18
2019-02-27T09:47:25.766Z,55.30
2019-02-27T09:48:23.535Z,53.97
2019-02-27T09:49:23.547Z,52.44
2019-02-27T09:50:23.516Z,53.23
2019-02-27T09:51:23.510Z,52.83
2019-02-27T09:52:23.777Z,52.29
2019-02-27T09:53:23.477Z,52.19
2019-02-27T09:54:23.502Z,51.37
2019-02-27T09:55:23.461Z,50.52
2019-02-27T09:56:26.038Z,51.12
2019-02-27T09:57:24.434Z,50.04
2019-02-27T09:58:23.422Z,49.00
2019-02-27T09:59:23.434Z,47.22
2019-02-27T10:00:25.894Z,47.63
2019-02-27T10:01:23.388Z,46.47
2019-02-27T10:02:23.377Z,44.81
2019-02-27T10:03:23.386Z,44.79
2019-02-27T10:04:25.907Z,44.26
2019-02-27T10:05:23.345Z,41.49
2019-02-27T10:06:23.342Z,42.29
2019-02-27T10:07:23.323Z,42.19
2019-02-27T10:08:25.322Z,41.56
2019-02-27T10:09:23.329Z,41.13
2019-02-27T10:10:23.284Z,40.20
2019-02-27T10:11:23.273Z,40.56
2019-02-27T10:12:27.103Z,38.62
2019-02-27T10:13:23.259Z,39.11
2019-02-27T10:14:23.266Z,37.69
2019-02-27T10:15:25.225Z,37.96
2019-02-27T10:16:23.220Z,37.05
2019-02-27T10:17:23.207Z,36.10
2019-02-27T10:18:23.195Z,35.48
2019-02-27T10:19:23.208Z,33.76
2019-02-27T10:20:23.176Z,33.75
2019-02-27T10:21:23.165Z,33.75
2019-02-27T10:22:24.609Z,32.53
2019-02-27T10:23:23.148Z,33.34
2019-02-27T10:24:23.149Z,33.44
2019-02-27T10:25:23.119Z,32.40
2019-02-27T10:26:23.102Z,31.78
2019-02-27T10:27:25.489Z,30.77
2019-02-27T10:28:24.086Z,31.88
2019-02-27T10:29:23.095Z,31.27
2019-02-27T10:30:23.068Z,31.19
2019-02-27T10:31:25.992Z,31.87
2019-02-27T10:32:23.037Z,31.13
2019-02-27T10:33:23.039Z,28.90
2019-02-27T10:34:23.030Z,28.90
2019-02-27T10:35:23.135Z,28.58
2019-02-27T10:36:22.991Z,28.18
2019-02-27T10:37:23.124Z,28.38
2019-02-27T10:38:22.971Z,27.78
2019-02-27T10:39:22.954Z,27.16
2019-02-27T10:40:22.974Z,27.76
2019-02-27T10:41:22.935Z,27.97
2019-02-27T10:42:22.932Z,26.15
2019-02-27T10:43:22.909Z,26.76
2019-02-27T10:44:22.905Z,26.04
2019-02-27T10:45:22.913Z,24.73
2019-02-27T10:46:23.666Z,25.02
2019-02-27T10:47:22.871Z,24.42
2019-02-27T10:48:22.859Z,24.61
2019-02-27T10:49:22.845Z,24.30
2019-02-27T10:50:22.857Z,24.40
2019-02-27T10:51:22.827Z,23.77
2019-02-27T10:52:24.433Z,23.57
2019-02-27T10:53:26.858Z,23.55
2019-02-27T10:54:23.809Z,22.13
2019-02-27T10:55:22.777Z,21.22
2019-02-27T10:56:24.243Z,21.51
2019-02-27T10:57:22.800Z,21.92
2019-02-27T10:58:24.614Z,22.44
2019-02-27T10:59:23.061Z,21.92
2019-02-27T11:00:25.214Z,22.43
2019-02-27T11:01:22.729Z,21.42
2019-02-27T11:02:23.518Z,22.13
2019-02-27T11:03:23.651Z,22.31
2019-02-27T11:04:22.682Z,21.81
2019-02-27T11:05:22.673Z,21.39
2019-02-27T11:06:22.677Z,21.39
2019-02-27T11:07:22.646Z,21.50
2019-02-27T11:08:22.634Z,21.00
2019-02-27T11:09:22.618Z,20.48
2019-02-27T11:10:22.642Z,20.57
2019-02-27T11:11:22.600Z,20.26
2019-02-27T11:12:22.617Z,19.88
2019-02-27T11:13:22.577Z,20.28
2019-02-27T11:14:22.571Z,19.96
2019-02-27T11:15:22.552Z,19.95
2019-02-27T11:16:22.544Z,19.95
2019-02-27T11:17:22.551Z,20.14
2019-02-27T11:18:22.520Z,19.13
2019-02-27T11:19:22.516Z,18.82
2019-02-27T11:20:24.611Z,19.31
2019-02-27T11:21:22.490Z,19.01
2019-02-27T11:22:22.497Z,19.09
2019-02-27T11:23:22.471Z,18.77
2019-02-27T11:24:22.453Z,17.07
2019-02-27T11:25:23.215Z,17.57
2019-02-27T11:26:22.447Z,17.39
2019-02-27T11:27:22.444Z,18.28
2019-02-27T11:28:22.417Z,18.07
2019-02-27T11:29:23.900Z,17.86
2019-02-27T11:30:22.423Z,17.18
2019-02-27T11:31:22.383Z,17.77
2019-02-27T11:32:23.873Z,17.48
2019-02-27T11:33:26.011Z,17.58
2019-02-27T11:34:22.353Z,17.57
2019-02-27T11:35:25.163Z,17.99
2019-02-27T11:36:22.329Z,18.00
2019-02-27T11:37:22.331Z,17.60
2019-02-27T11:38:24.790Z,17.79
2019-02-27T11:39:22.295Z,17.49
2019-02-27T11:40:22.288Z,17.79
2019-02-27T11:41:22.280Z,17.16
2019-02-27T11:42:22.282Z,16.07
2019-02-27T11:43:22.254Z,16.06
2019-02-27T11:44:22.240Z,15.76
2019-02-27T11:45:24.680Z,15.17
2019-02-27T11:46:22.228Z,16.89
2019-02-27T11:47:22.238Z,16.68
2019-02-27T11:48:22.876Z,15.48
2019-02-27T11:49:22.191Z,16.06
2019-02-27T11:50:22.195Z,15.06
2019-02-27T11:51:22.164Z,14.76
2019-02-27T11:52:22.159Z,13.28
2019-02-27T11:53:22.175Z,14.97
2019-02-27T11:54:22.139Z,13.86
2019-02-27T11:55:24.279Z,13.76
2019-02-27T11:56:22.116Z,13.78
2019-02-27T11:57:22.107Z,14.07
2019-02-27T11:58:22.131Z,14.37
2019-02-27T11:59:22.085Z,13.76
2019-02-27T12:00:22.073Z,13.17
2019-02-27T12:01:22.766Z,13.37
2019-02-27T12:02:28.731Z,13.67
2019-02-27T12:03:23.079Z,13.77
2019-02-27T12:04:22.037Z,14.07
2019-02-27T12:05:22.019Z,14.06
2019-02-27T12:06:22.016Z,13.06
2019-02-27T12:07:22.007Z,14.06
2019-02-27T12:08:22.388Z,13.18
2019-02-27T12:09:21.980Z,12.67
2019-02-27T12:10:21.978Z,12.95
2019-02-27T12:11:21.959Z,11.85
2019-02-27T12:12:23.325Z,12.84
2019-02-27T12:13:21.962Z,12.34
2019-02-27T12:14:21.923Z,11.75
2019-02-27T12:15:21.929Z,11.85
2019-02-27T12:16:21.914Z,13.12
2019-02-27T12:17:23.234Z,11.85
2019-02-27T12:18:23.593Z,12.27
2019-02-27T12:19:21.896Z,12.95
2019-02-27T12:20:21.863Z,12.26
2019-02-27T12:21:21.856Z,11.76
2019-02-27T12:22:21.848Z,12.06
2019-02-27T12:23:21.832Z,11.68
2019-02-27T12:24:21.837Z,12.89
2019-02-27T12:25:26.896Z,13.69
2019-02-27T12:26:22.799Z,13.61
2019-02-27T12:27:42.963Z,13.31
2019-02-27T12:28:22.856Z,15.01
2019-02-27T12:29:24.191Z,14.92
2019-02-27T12:30:21.755Z,15.24
2019-02-27T12:31:21.745Z,14.65
2019-02-27T12:32:21.956Z,14.26
2019-02-27T12:33:21.724Z,14.66
2019-02-27T12:34:21.734Z,15.44
2019-02-27T12:35:21.703Z,14.62
2019-02-27T12:36:21.687Z,17.00
2019-02-27T12:37:28.209Z,15.91
2019-02-27T12:38:22.675Z,13.21
2019-02-27T12:39:21.682Z,13.71
2019-02-27T12:40:24.942Z,13.72
2019-02-27T12:41:21.637Z,13.43
2019-02-27T12:42:21.633Z,13.24
2019-02-27T12:43:21.618Z,14.34
2019-02-27T12:44:21.630Z,14.54
2019-02-27T12:45:21.649Z,15.21
2019-02-27T12:46:21.605Z,13.71
2019-02-27T12:47:21.574Z,13.21
2019-02-27T12:48:21.558Z,13.20
2019-02-27T12:49:21.557Z,14.00
2019-02-27T12:50:21.566Z,12.51
2019-02-27T12:51:21.528Z,13.23
2019-02-27T12:52:22.746Z,13.53